Mount Pleasant, South Carolina
Current Conditions -  °F | °C
As of 4:55 PM on Thursday 23 Oct 2014 (Local Time) from KLRO Reporting Station
Clear Clear  
Wind Chill: 70°   Ceiling: Unl
Heat Index: 70°   Visibility: 10mi
Dew Point: 46°   Wind: 3mph
Humidity: 43%   Direction: 340°NNW
Pressure: 29.98"   Gusts: NA
Location:  32.8°N, 79.89°W
Report Text: KLRO 232055Z AUTO 34003KT 10SM CLR 21/08 A2998 RMK AO2 PWINO PNO
Loading
Personal Weather Stations






























Interactive Weather Map New forecast layout! Learn more

10-Day Weather Forecast

Advertisements
Track Severe Weather on mobile